createdAt,value
2018-07-11T00:01:51.033Z,12.50
2018-07-11T00:04:20.213Z,12.30
2018-07-11T00:09:17.537Z,12.40
2018-07-11T00:11:45.715Z,12.40
2018-07-11T00:14:13.902Z,12.50
2018-07-11T00:16:47.637Z,12.50
2018-07-11T00:19:15.806Z,12.50
2018-07-11T00:21:44.260Z,12.40
2018-07-11T00:24:12.354Z,12.40
2018-07-11T00:26:40.478Z,12.40
2018-07-11T00:29:08.765Z,12.40
2018-07-11T00:31:37.220Z,12.50
2018-07-11T00:34:05.750Z,12.40
2018-07-11T00:36:34.231Z,12.50
2018-07-11T00:39:03.115Z,12.40
2018-07-11T00:41:31.514Z,12.40
2018-07-11T00:46:27.546Z,12.30
2018-07-11T00:48:56.034Z,12.30
2018-07-11T00:51:24.410Z,12.30
2018-07-11T00:53:52.893Z,12.30
2018-07-11T00:56:21.322Z,12.30
2018-07-11T00:59:52.587Z,12.40
2018-07-11T01:02:21.850Z,12.40
2018-07-11T01:04:50.079Z,12.40
2018-07-11T01:07:19.388Z,12.40
2018-07-11T01:09:49.294Z,12.40
2018-07-11T01:12:18.278Z,12.30
2018-07-11T01:14:48.018Z,12.20
2018-07-11T01:17:21.562Z,12.10
2018-07-11T01:19:49.751Z,12.10
2018-07-11T01:22:17.894Z,12.10
2018-07-11T01:24:45.974Z,12.00
2018-07-11T01:27:13.947Z,12.10
2018-07-11T01:29:42.084Z,12.10
2018-07-11T01:32:11.199Z,12.10
2018-07-11T01:34:40.109Z,12.00
2018-07-11T01:37:08.210Z,12.00
2018-07-11T01:39:37.497Z,11.90
2018-07-11T01:42:05.774Z,11.90
2018-07-11T01:44:35.897Z,11.80
2018-07-11T01:47:05.988Z,11.90
2018-07-11T01:49:34.341Z,11.80
2018-07-11T01:52:13.598Z,11.80
2018-07-11T01:54:41.758Z,11.80
2018-07-11T01:57:10.256Z,11.80
2018-07-11T01:59:38.331Z,11.80
2018-07-11T02:02:06.465Z,11.90
2018-07-11T02:04:36.049Z,11.90
2018-07-11T02:07:04.466Z,11.90
2018-07-11T02:09:32.977Z,12.10
2018-07-11T02:12:01.223Z,12.10
2018-07-11T02:14:30.126Z,12.20
2018-07-11T02:16:58.958Z,12.20
2018-07-11T02:19:27.355Z,12.30
2018-07-11T02:21:57.109Z,12.10
2018-07-11T02:24:25.735Z,12.00
2018-07-11T02:26:55.278Z,12.00
2018-07-11T02:29:23.714Z,12.00
2018-07-11T02:31:53.082Z,12.10
2018-07-11T02:34:27.735Z,12.20
2018-07-11T02:36:55.877Z,12.20
2018-07-11T02:39:23.882Z,12.30
2018-07-11T02:41:52.334Z,12.20
2018-07-11T02:44:21.109Z,12.00
2018-07-11T02:46:54.873Z,12.00
2018-07-11T02:49:25.681Z,12.00
2018-07-11T02:51:54.792Z,12.10
2018-07-11T02:54:23.536Z,12.00
2018-07-11T02:56:51.682Z,12.10
2018-07-11T02:59:19.859Z,12.10
2018-07-11T03:01:48.017Z,12.10
2018-07-11T03:04:16.139Z,12.10
2018-07-11T03:06:45.869Z,12.20
2018-07-11T03:09:13.861Z,12.10
2018-07-11T03:11:42.457Z,12.20
2018-07-11T03:14:10.830Z,12.20
2018-07-11T03:16:39.886Z,12.20
2018-07-11T03:19:08.055Z,12.20
2018-07-11T03:21:36.626Z,12.20
2018-07-11T03:24:05.015Z,12.20
2018-07-11T03:26:33.395Z,12.10
2018-07-11T03:29:01.770Z,12.20
2018-07-11T03:31:30.063Z,12.10
2018-07-11T03:33:58.706Z,12.10
2018-07-11T03:36:28.091Z,12.20
2018-07-11T03:38:56.158Z,12.10
2018-07-11T03:41:25.725Z,12.20
2018-07-11T03:43:54.151Z,12.20
2018-07-11T03:46:22.889Z,12.20
2018-07-11T03:48:51.945Z,12.10
2018-07-11T03:51:20.030Z,12.10
2018-07-11T03:53:48.250Z,12.10
2018-07-11T03:56:16.334Z,12.20
2018-07-11T03:58:44.721Z,12.30
2018-07-11T04:01:13.265Z,12.20
2018-07-11T04:03:41.498Z,12.20
2018-07-11T04:06:12.026Z,12.20
2018-07-11T04:08:40.973Z,12.10
2018-07-11T04:11:14.622Z,12.20
2018-07-11T04:13:44.733Z,12.20
2018-07-11T04:16:13.014Z,12.30
2018-07-11T04:18:41.202Z,12.30
2018-07-11T04:21:09.227Z,12.30
2018-07-11T04:23:37.292Z,12.40
2018-07-11T04:26:05.458Z,12.40
2018-07-11T04:28:33.878Z,12.40
2018-07-11T04:31:02.034Z,12.50
2018-07-11T04:33:31.792Z,12.50
2018-07-11T04:36:00.485Z,12.50
2018-07-11T04:38:30.054Z,12.50
2018-07-11T04:40:58.655Z,12.50
2018-07-11T04:43:27.950Z,12.40
2018-07-11T04:45:56.526Z,12.40
2018-07-11T04:48:24.756Z,12.40
2018-07-11T04:50:52.951Z,12.30
2018-07-11T04:53:23.310Z,12.60
2018-07-11T04:55:56.458Z,12.60
2018-07-11T04:58:24.813Z,12.60
2018-07-11T05:00:53.173Z,12.60
2018-07-11T05:03:21.509Z,12.60
2018-07-11T05:05:49.747Z,12.60
2018-07-11T05:08:18.443Z,12.60
2018-07-11T05:10:46.514Z,12.60
2018-07-11T05:13:14.818Z,12.70
2018-07-11T05:15:42.867Z,12.60
2018-07-11T05:18:11.002Z,12.70
2018-07-11T05:20:39.255Z,12.80
2018-07-11T05:23:07.350Z,12.90
2018-07-11T05:25:35.590Z,12.90
2018-07-11T05:28:06.182Z,12.90
2018-07-11T05:30:34.397Z,13.00
2018-07-11T05:33:02.988Z,13.30
2018-07-11T05:35:31.331Z,13.40
2018-07-11T05:37:59.440Z,13.40
2018-07-11T05:40:29.027Z,13.40
2018-07-11T05:42:58.538Z,13.50
2018-07-11T05:45:26.950Z,13.60
2018-07-11T05:47:55.017Z,13.60
2018-07-11T05:50:23.438Z,13.70
2018-07-11T05:52:52.052Z,13.80
2018-07-11T05:55:21.018Z,14.00
2018-07-11T05:57:49.171Z,14.00
2018-07-11T06:00:18.338Z,14.00
2018-07-11T06:02:47.292Z,14.00
2018-07-11T06:05:16.410Z,14.00
2018-07-11T06:07:44.805Z,14.10
2018-07-11T06:10:13.441Z,14.10
2018-07-11T06:12:41.547Z,14.20
2018-07-11T06:15:10.038Z,14.00
2018-07-11T06:17:38.539Z,14.10
2018-07-11T06:20:06.886Z,13.90
2018-07-11T06:22:35.932Z,14.00
2018-07-11T06:25:04.994Z,13.90
2018-07-11T06:27:33.055Z,13.80
2018-07-11T06:30:01.403Z,13.90
2018-07-11T06:32:30.513Z,13.80
2018-07-11T06:34:59.258Z,13.80
2018-07-11T06:37:27.559Z,13.90
2018-07-11T06:39:59.710Z,14.00
2018-07-11T06:47:31.815Z,14.10
2018-07-11T06:49:59.942Z,14.20
2018-07-11T06:52:28.036Z,14.20
2018-07-11T06:54:56.415Z,14.20
2018-07-11T06:57:27.598Z,14.30
2018-07-11T06:59:55.683Z,14.40
2018-07-11T07:02:24.168Z,14.40
2018-07-11T07:04:53.298Z,14.40
2018-07-11T07:07:21.710Z,14.50
2018-07-11T07:09:50.120Z,14.50
2018-07-11T07:12:18.727Z,14.40
2018-07-11T07:14:47.771Z,14.40
2018-07-11T07:17:16.738Z,14.40
2018-07-11T07:19:45.193Z,14.30
2018-07-11T07:22:13.601Z,14.40
2018-07-11T07:24:41.778Z,14.50
2018-07-11T07:27:09.899Z,14.50
2018-07-11T07:32:12.693Z,14.70
2018-07-11T07:34:41.748Z,14.90
2018-07-11T07:37:10.336Z,15.30
2018-07-11T07:39:39.178Z,15.40
2018-07-11T07:44:35.618Z,16.00
2018-07-11T07:47:04.258Z,16.10
2018-07-11T07:49:33.082Z,16.00
2018-07-11T07:52:01.334Z,15.90
2018-07-11T07:54:30.019Z,16.00
2018-07-11T07:56:58.390Z,16.10
2018-07-11T07:59:26.873Z,16.50
2018-07-11T08:01:57.326Z,16.80
2018-07-11T08:04:26.519Z,17.30
2018-07-11T08:06:54.790Z,18.40
2018-07-11T08:09:22.821Z,18.60
2018-07-11T08:11:51.097Z,19.60
2018-07-11T08:14:19.393Z,18.70
2018-07-11T08:16:47.778Z,19.60
2018-07-11T08:19:16.267Z,19.00
2018-07-11T08:21:44.401Z,18.50
2018-07-11T08:24:23.605Z,19.60
2018-07-11T08:27:02.815Z,20.40
2018-07-11T08:29:41.321Z,19.40
2018-07-11T08:32:22.517Z,18.20
2018-07-11T08:35:09.314Z,18.80
2018-07-11T08:40:10.454Z,18.60
2018-07-11T08:42:50.301Z,18.60
2018-07-11T08:46:00.825Z,18.00
2018-07-11T08:48:42.577Z,18.10
2018-07-11T08:51:27.836Z,18.70
2018-07-11T08:54:07.153Z,18.40
2018-07-11T08:56:48.927Z,18.10
2018-07-11T08:59:31.662Z,17.50
2018-07-11T09:04:15.647Z,17.60
2018-07-11T09:08:56.931Z,18.80
2018-07-11T09:13:40.550Z,18.50
2018-07-11T09:16:32.277Z,18.70
2018-07-11T09:19:11.857Z,22.80
2018-07-11T09:21:53.926Z,21.50
2018-07-11T09:24:33.394Z,20.00
2018-07-11T09:27:01.422Z,19.40
2018-07-11T09:29:29.821Z,18.90
2018-07-11T09:31:58.019Z,18.60
2018-07-11T09:34:26.379Z,18.30
2018-07-11T09:36:54.467Z,18.20
2018-07-11T09:39:22.901Z,19.20
2018-07-11T09:41:50.941Z,21.10
2018-07-11T09:44:22.010Z,22.60
2018-07-11T09:46:50.797Z,21.20
2018-07-11T09:49:18.928Z,19.20
2018-07-11T09:51:48.051Z,18.70
2018-07-11T09:54:17.217Z,18.50
2018-07-11T09:56:45.878Z,18.20
2018-07-11T09:59:15.100Z,17.90
2018-07-11T10:01:43.711Z,17.60
2018-07-11T10:04:13.862Z,17.90
2018-07-11T10:06:42.422Z,18.10
2018-07-11T10:09:10.510Z,18.50
2018-07-11T10:11:40.122Z,19.00
2018-07-11T10:14:08.720Z,18.30
2018-07-11T10:16:38.205Z,18.80
2018-07-11T10:19:06.433Z,19.10
2018-07-11T10:21:35.060Z,19.10
2018-07-11T10:24:03.345Z,18.50
2018-07-11T10:26:32.418Z,18.40
2018-07-11T10:29:02.914Z,18.70
2018-07-11T10:31:32.121Z,19.30
2018-07-11T10:34:00.246Z,19.80
2018-07-11T10:36:28.573Z,19.80
2018-07-11T10:38:56.693Z,20.00
2018-07-11T10:41:24.858Z,20.10
2018-07-11T10:43:53.137Z,20.70
2018-07-11T10:46:22.029Z,20.30
2018-07-11T10:48:51.253Z,20.10
2018-07-11T10:51:22.533Z,20.10
2018-07-11T10:53:50.874Z,20.00
2018-07-11T10:56:20.198Z,19.80
2018-07-11T10:58:49.757Z,19.50
2018-07-11T11:01:18.697Z,19.50
2018-07-11T11:03:50.682Z,19.70
2018-07-11T11:06:19.453Z,19.80
2018-07-11T11:08:47.861Z,19.70
2018-07-11T11:11:15.932Z,19.60
2018-07-11T11:13:44.173Z,19.30
2018-07-11T11:16:12.627Z,19.20
2018-07-11T11:18:40.776Z,19.10
2018-07-11T11:21:08.862Z,19.30
2018-07-11T11:23:39.173Z,19.20
2018-07-11T11:26:10.012Z,19.00
2018-07-11T11:28:42.947Z,19.10
2018-07-11T11:31:11.798Z,19.20
2018-07-11T11:33:40.074Z,19.30
2018-07-11T11:36:08.347Z,19.50
2018-07-11T11:38:37.438Z,19.50
2018-07-11T11:41:05.795Z,19.80
2018-07-11T11:43:34.073Z,19.90
2018-07-11T11:46:02.271Z,20.20
2018-07-11T11:48:32.598Z,20.30
2018-07-11T11:51:01.083Z,20.00
2018-07-11T11:53:29.150Z,19.60
2018-07-11T11:55:57.292Z,19.70
2018-07-11T11:58:36.309Z,19.80
2018-07-11T12:01:21.623Z,19.60
2018-07-11T12:03:51.101Z,19.40
2018-07-11T12:06:19.755Z,19.00
2018-07-11T12:08:49.682Z,18.30
2018-07-11T12:11:21.092Z,17.70
2018-07-11T12:13:50.152Z,17.60
2018-07-11T12:16:22.625Z,17.50
2018-07-11T12:18:53.341Z,17.60
2018-07-11T12:21:24.125Z,17.60
2018-07-11T12:23:54.277Z,17.60
2018-07-11T12:26:27.103Z,17.70
2018-07-11T12:28:55.175Z,18.10
2018-07-11T12:31:25.046Z,18.40
2018-07-11T12:33:54.112Z,18.50
2018-07-11T12:36:22.489Z,18.80
2018-07-11T12:38:54.181Z,18.90
2018-07-11T12:41:25.112Z,19.00
2018-07-11T12:43:57.795Z,19.20
2018-07-11T12:46:27.658Z,19.30
2018-07-11T12:49:06.326Z,19.20
2018-07-11T12:51:36.369Z,19.20
2018-07-11T12:54:05.356Z,18.90
2018-07-11T12:56:37.674Z,18.80
2018-07-11T12:59:06.295Z,18.70
2018-07-11T13:01:35.247Z,18.80
2018-07-11T13:04:05.780Z,18.60
2018-07-11T13:06:44.666Z,18.60
2018-07-11T13:09:12.780Z,18.60
2018-07-11T13:11:42.111Z,18.50
2018-07-11T13:14:10.492Z,18.20
2018-07-11T13:16:39.812Z,18.20
2018-07-11T13:19:08.351Z,18.30
2018-07-11T13:21:37.918Z,18.60
2018-07-11T13:24:06.533Z,18.80
2018-07-11T13:26:34.774Z,18.60
2018-07-11T13:29:03.939Z,18.40
2018-07-11T13:31:33.264Z,18.60
2018-07-11T13:34:04.604Z,18.70
2018-07-11T13:36:34.079Z,18.70
2018-07-11T13:44:00.286Z,18.40
2018-07-11T13:46:30.821Z,18.50
2018-07-11T13:49:00.111Z,18.60
2018-07-11T13:51:28.390Z,18.70
2018-07-11T13:53:57.745Z,18.80
2018-07-11T13:56:25.970Z,18.50
2018-07-11T13:58:54.353Z,18.70
2018-07-11T14:01:24.342Z,18.90
2018-07-11T14:03:54.099Z,18.60
2018-07-11T14:06:22.627Z,18.60
2018-07-11T14:08:54.054Z,18.80
2018-07-11T14:11:23.283Z,19.00
2018-07-11T14:13:52.718Z,19.10
2018-07-11T14:16:21.431Z,18.80
2018-07-11T14:18:50.558Z,18.70
2018-07-11T14:21:19.688Z,18.80
2018-07-11T14:23:49.479Z,18.80
2018-07-11T14:26:20.215Z,18.50
2018-07-11T14:28:49.938Z,18.40
2018-07-11T14:31:28.501Z,18.60
2018-07-11T14:33:58.061Z,18.80
2018-07-11T14:36:29.090Z,18.70
2018-07-11T14:38:59.141Z,18.30
2018-07-11T14:41:28.231Z,18.40
2018-07-11T14:43:59.755Z,18.50
2018-07-11T14:46:29.675Z,18.30
2018-07-11T14:48:58.854Z,18.80
2018-07-11T14:51:27.392Z,19.20
2018-07-11T14:53:56.788Z,19.60
2018-07-11T14:56:27.445Z,19.40
2018-07-11T14:58:58.224Z,19.40
2018-07-11T15:01:27.692Z,18.80
2018-07-11T15:03:55.893Z,19.10
2018-07-11T15:06:24.421Z,19.30
2018-07-11T15:08:54.340Z,19.30
2018-07-11T15:11:24.178Z,19.50
2018-07-11T15:13:54.195Z,19.80
2018-07-11T15:16:22.962Z,20.00
2018-07-11T15:18:52.222Z,19.70
2018-07-11T15:21:20.309Z,19.40
2018-07-11T15:23:48.567Z,19.30
2018-07-11T15:26:17.381Z,19.30
2018-07-11T15:28:46.110Z,19.50
2018-07-11T15:31:17.873Z,19.60
2018-07-11T15:33:47.717Z,19.50
2018-07-11T15:36:16.157Z,18.90
2018-07-11T15:38:45.347Z,19.50
2018-07-11T15:41:14.654Z,19.80
2018-07-11T15:43:42.759Z,19.60
2018-07-11T15:46:11.257Z,19.30
2018-07-11T15:51:10.870Z,18.90
2018-07-11T15:53:41.427Z,18.80
2018-07-11T15:56:09.834Z,18.80
2018-07-11T15:58:39.822Z,19.00
2018-07-11T16:01:09.664Z,18.80
2018-07-11T16:03:46.283Z,18.80
2018-07-11T16:11:22.038Z,18.30
2018-07-11T16:13:53.158Z,18.30
2018-07-11T16:16:24.295Z,18.50
2018-07-11T16:18:52.950Z,18.50
2018-07-11T16:21:22.112Z,18.40
2018-07-11T16:26:18.658Z,18.30
2018-07-11T16:28:46.858Z,18.10
2018-07-11T16:31:15.107Z,18.00
2018-07-11T16:33:43.259Z,17.90
2018-07-11T16:36:15.322Z,18.10
2018-07-11T16:38:44.723Z,18.30
2018-07-11T16:41:15.925Z,18.40
2018-07-11T16:44:00.449Z,18.20
2018-07-11T16:46:28.729Z,17.90
2018-07-11T16:48:57.098Z,17.90
2018-07-11T16:51:25.360Z,18.20
2018-07-11T16:53:57.219Z,18.10
2018-07-11T16:56:27.117Z,18.30
2018-07-11T16:59:02.721Z,18.30
2018-07-11T17:01:50.547Z,18.20
2018-07-11T17:06:48.050Z,18.10
2018-07-11T17:09:18.549Z,18.00
2018-07-11T17:11:47.410Z,18.00
2018-07-11T17:14:17.104Z,17.90
2018-07-11T17:17:02.181Z,17.50
2018-07-11T17:19:41.803Z,17.70
2018-07-11T17:22:14.921Z,17.70
2018-07-11T17:24:46.325Z,17.20
2018-07-11T17:27:17.971Z,17.10
2018-07-11T17:29:57.274Z,17.20
2018-07-11T17:32:26.553Z,17.20
2018-07-11T17:34:55.939Z,17.00
2018-07-11T17:37:29.178Z,17.00
2018-07-11T17:40:06.433Z,17.10
2018-07-11T17:42:36.003Z,17.00
2018-07-11T17:45:11.497Z,17.00
2018-07-11T17:47:57.510Z,17.10
2018-07-11T17:50:29.320Z,17.00
2018-07-11T17:53:09.700Z,17.00
2018-07-11T17:55:50.091Z,16.80
2018-07-11T17:58:20.533Z,16.50
2018-07-11T18:00:53.533Z,16.50
2018-07-11T18:03:33.181Z,16.60
2018-07-11T18:06:22.412Z,16.70
2018-07-11T18:08:52.865Z,16.70
2018-07-11T18:11:21.833Z,16.90
2018-07-11T18:13:54.862Z,17.00
2018-07-11T18:16:37.519Z,16.90
2018-07-11T18:21:16.807Z,16.90
2018-07-11T18:24:04.096Z,16.80
2018-07-11T18:26:46.586Z,16.70
2018-07-11T18:29:44.750Z,16.90
2018-07-11T18:32:20.687Z,16.80
2018-07-11T18:35:00.343Z,16.90
2018-07-11T18:37:38.382Z,16.70
2018-07-11T18:40:19.078Z,16.60
2018-07-11T18:42:59.133Z,16.60
2018-07-11T18:45:39.509Z,16.70
2018-07-11T18:50:23.486Z,16.50
2018-07-11T18:52:56.637Z,16.60
2018-07-11T18:55:38.347Z,16.60
2018-07-11T18:58:26.138Z,16.60
2018-07-11T19:01:17.850Z,16.70
2018-07-11T19:04:03.234Z,16.70
2018-07-11T19:06:43.507Z,16.80
2018-07-11T19:09:30.605Z,16.80
2018-07-11T19:13:14.401Z,16.80
2018-07-11T19:15:47.858Z,16.70
2018-07-11T19:18:24.413Z,16.80
2018-07-11T19:21:11.614Z,16.60
2018-07-11T19:23:52.577Z,16.60
2018-07-11T19:26:33.430Z,16.60
2018-07-11T19:29:10.924Z,16.50
2018-07-11T19:33:51.363Z,16.30
2018-07-11T19:36:28.421Z,16.30
2018-07-11T19:41:08.778Z,16.30
2018-07-11T19:44:58.207Z,16.20
2018-07-11T19:47:37.686Z,16.20
2018-07-11T19:50:22.024Z,16.00
2018-07-11T19:53:03.842Z,16.10
2018-07-11T19:56:37.650Z,16.10
2018-07-11T19:59:09.366Z,16.10
2018-07-11T20:01:38.995Z,16.30
2018-07-11T20:04:16.296Z,16.20
2018-07-11T20:06:48.466Z,16.20
2018-07-11T20:09:17.230Z,16.10
2018-07-11T20:11:46.266Z,16.00
2018-07-11T20:14:19.274Z,16.00
2018-07-11T20:16:52.821Z,16.10
2018-07-11T20:19:21.685Z,16.10
2018-07-11T20:21:52.539Z,16.10
2018-07-11T20:24:23.145Z,15.90
2018-07-11T20:26:53.028Z,15.90
2018-07-11T20:29:21.690Z,15.70
2018-07-11T20:31:51.172Z,15.60
2018-07-11T20:34:20.530Z,15.60
2018-07-11T20:36:52.090Z,15.70
2018-07-11T20:39:21.632Z,15.70
2018-07-11T20:41:53.087Z,15.80
2018-07-11T20:44:23.242Z,15.80
2018-07-11T20:46:51.778Z,15.80
2018-07-11T20:49:26.990Z,15.70
2018-07-11T20:51:55.889Z,15.70
2018-07-11T20:54:26.217Z,15.50
2018-07-11T20:56:57.065Z,15.40
2018-07-11T20:59:36.516Z,15.60
2018-07-11T21:02:16.302Z,15.70
2018-07-11T21:05:09.273Z,15.60
2018-07-11T21:08:20.607Z,15.70
2018-07-11T21:12:09.380Z,15.60
2018-07-11T21:18:48.005Z,15.60
2018-07-11T21:21:18.283Z,15.60
2018-07-11T21:23:46.714Z,15.30
2018-07-11T21:26:15.618Z,15.50
2018-07-11T21:28:47.441Z,15.50
2018-07-11T21:31:18.278Z,15.60
2018-07-11T21:33:47.302Z,15.50
2018-07-11T21:36:17.161Z,15.50
2018-07-11T21:38:47.534Z,15.30
2018-07-11T21:41:16.489Z,15.20
2018-07-11T21:43:46.907Z,15.10
2018-07-11T21:46:21.692Z,15.10
2018-07-11T21:48:54.788Z,15.20
2018-07-11T21:51:29.614Z,15.30
2018-07-11T21:53:59.174Z,15.40
2018-07-11T21:56:31.550Z,15.40
2018-07-11T21:59:04.156Z,15.40
2018-07-11T22:01:33.193Z,15.40
2018-07-11T22:04:03.683Z,15.40
2018-07-11T22:06:33.107Z,15.40
2018-07-11T22:09:01.529Z,15.40
2018-07-11T22:11:31.099Z,15.40
2018-07-11T22:14:01.272Z,15.50
2018-07-11T22:16:30.650Z,15.30
2018-07-11T22:19:04.722Z,15.30
2018-07-11T22:21:35.634Z,15.10
2018-07-11T22:24:05.311Z,15.10
2018-07-11T22:26:32.623Z,15.20
2018-07-11T22:28:59.780Z,15.20
2018-07-11T22:31:26.968Z,15.20
2018-07-11T22:33:55.892Z,15.30
2018-07-11T22:36:26.787Z,15.20
2018-07-11T22:38:54.718Z,15.30
2018-07-11T22:41:23.365Z,15.20
2018-07-11T22:43:51.121Z,15.20
2018-07-11T22:46:18.242Z,15.20
2018-07-11T22:48:45.758Z,15.40
2018-07-11T22:51:12.834Z,15.20
2018-07-11T22:53:44.254Z,15.30
2018-07-11T22:56:11.523Z,15.30
2018-07-11T22:58:40.410Z,15.40
2018-07-11T23:03:38.241Z,15.40
2018-07-11T23:06:06.420Z,15.40
2018-07-11T23:08:33.942Z,15.40
2018-07-11T23:11:01.517Z,15.40
2018-07-11T23:13:28.731Z,15.30
2018-07-11T23:15:57.629Z,15.20
2018-07-11T23:18:24.593Z,15.30
2018-07-11T23:20:51.704Z,15.30
2018-07-11T23:23:22.956Z,15.40
2018-07-11T23:25:49.948Z,15.40
2018-07-11T23:28:16.914Z,15.30
2018-07-11T23:30:43.922Z,15.30
2018-07-11T23:33:12.608Z,15.30
2018-07-11T23:35:39.666Z,15.40
2018-07-11T23:38:06.598Z,15.30
2018-07-11T23:40:35.048Z,15.30
2018-07-11T23:43:02.662Z,15.30
2018-07-11T23:45:29.461Z,15.30
2018-07-11T23:47:56.522Z,15.20
2018-07-11T23:50:23.345Z,15.20
2018-07-11T23:52:51.162Z,15.10
2018-07-11T23:55:18.209Z,15.20
2018-07-11T23:57:45.266Z,15.10
